Time;durP1;ratioP1;P1;durP2;ratioP2;P2;SDS_P1;SDS_P2;PMS_P1;PMS_P2;Temp;Humidity;BMP_temperature;BMP_pressure;BME280_temperature;BME280_humidity;BME280_pressure;Samples;Min_cycle;Max_cycle;Signal;HPM_P1;HPM_P2
2022/05/30 00:00:23;;;;;;;9.73;3.42;;;9.20;99.90;;;;;;4930846;29;20072;-94
2022/05/30 00:02:50;;;;;;;7.25;2.30;;;9.00;99.90;;;;;;4922012;29;20044;-94
2022/05/30 00:05:18;;;;;;;9.23;2.67;;;9.10;99.90;;;;;;4947838;29;20044;-94
2022/05/30 00:07:44;;;;;;;8.70;2.55;;;9.00;99.90;;;;;;4936431;29;20108;-93
2022/05/30 00:10:11;;;;;;;7.38;2.42;;;9.10;99.90;;;;;;4912683;29;20044;-95
2022/05/30 00:12:40;;;;;;;7.53;2.83;;;9.00;99.90;;;;;;4937069;29;20110;-95
2022/05/30 00:17:36;;;;;;;6.13;2.08;;;9.00;99.90;;;;;;4981193;28;20062;-95
2022/05/30 00:20:03;;;;;;;7.70;2.50;;;8.90;99.90;;;;;;4977910;28;20038;-94
2022/05/30 00:22:29;;;;;;;7.50;2.45;;;8.90;99.90;;;;;;4980648;28;20554;-94
2022/05/30 00:24:57;;;;;;;7.95;2.55;;;8.90;99.90;;;;;;4969404;28;20067;-94
2022/05/30 00:27:23;;;;;;;8.68;2.60;;;8.90;99.90;;;;;;4994565;28;20027;-95
2022/05/30 00:29:49;;;;;;;7.55;2.60;;;9.00;99.90;;;;;;4981079;28;20042;-95
2022/05/30 00:32:15;;;;;;;7.90;2.72;;;8.90;99.90;;;;;;4995997;28;20050;-95
2022/05/30 00:34:41;;;;;;;8.50;3.13;;;8.90;99.90;;;;;;4974571;28;20042;-94
2022/05/30 00:37:07;;;;;;;7.90;3.33;;;8.80;99.90;;;;;;4993826;28;20018;-95
2022/05/30 00:39:33;;;;;;;10.25;3.65;;;8.80;99.90;;;;;;5162338;23;20079;-94
2022/05/30 00:42:09;;;;;;;7.85;2.58;;;8.80;99.90;;;;;;4945578;29;20047;-94
2022/05/30 00:47:11;;;;;;;7.18;2.63;;;8.70;99.90;;;;;;4997740;23;20051;-95
2022/05/30 00:49:39;;;;;;;9.30;3.53;;;8.60;99.90;;;;;;4978497;28;20052;-94
2022/05/30 00:52:08;;;;;;;8.60;3.53;;;8.60;99.90;;;;;;4978043;28;20044;-94
2022/05/30 01:00:02;;;;;;;11.93;4.30;;;8.60;99.90;;;;;;4952493;29;20146;-94
2022/05/30 01:02:34;;;;;;;9.82;2.85;;;8.50;99.90;;;;;;4950420;29;20048;-94
2022/05/30 01:07:46;;;;;;;9.52;3.05;;;8.40;99.90;;;;;;4955026;29;20035;-94
2022/05/30 01:10:18;;;;;;;10.00;3.33;;;8.50;99.90;;;;;;4969093;29;20043;-94
2022/05/30 01:13:13;;;;;;;11.57;3.67;;;8.30;99.90;;;;;;4950427;29;20044;-95
2022/05/30 01:15:40;;;;;;;9.13;3.58;;;8.40;99.90;;;;;;4927739;29;20047;-94
2022/05/30 01:18:17;;;;;;;10.45;3.92;;;8.40;99.90;;;;;;4954021;29;20083;-94
2022/05/30 01:20:57;;;;;;;10.63;4.00;;;8.30;99.90;;;;;;4939231;29;20043;-93
2022/05/30 01:23:58;;;;;;;7.93;3.08;;;8.30;99.90;;;;;;4947508;29;20052;-94
2022/05/30 01:26:41;;;;;;;11.52;4.18;;;8.10;99.90;;;;;;4887563;29;20056;-94
2022/05/30 01:29:14;;;;;;;9.10;3.10;;;8.10;99.90;;;;;;4888888;29;20549;-94
2022/05/30 01:31:40;;;;;;;13.10;3.25;;;8.00;99.90;;;;;;4881891;29;20051;-94
2022/05/30 01:34:06;;;;;;;9.25;2.38;;;7.90;99.90;;;;;;4912048;29;20096;-94
2022/05/30 01:36:34;;;;;;;11.35;4.15;;;8.00;99.90;;;;;;4900789;29;20116;-94
2022/05/30 01:39:00;;;;;;;10.25;3.88;;;7.90;99.90;;;;;;4878413;29;20045;-95
2022/05/30 01:41:27;;;;;;;8.10;2.95;;;7.90;99.90;;;;;;4887417;29;20044;-94
2022/05/30 01:43:53;;;;;;;9.30;3.67;;;7.90;99.90;;;;;;4894120;29;20060;-94
2022/05/30 01:46:21;;;;;;;10.65;3.50;;;7.90;99.90;;;;;;4908225;29;20096;-94
2022/05/30 01:48:47;;;;;;;9.70;3.78;;;7.90;99.90;;;;;;4872870;29;20045;-94
2022/05/30 01:51:15;;;;;;;8.82;2.70;;;7.90;99.90;;;;;;4882961;29;20084;-94
2022/05/30 01:53:41;;;;;;;6.55;2.70;;;7.90;99.90;;;;;;4901105;29;20053;-94
2022/05/30 01:56:07;;;;;;;8.95;2.47;;;7.80;99.90;;;;;;4887527;29;20061;-94
2022/05/30 01:58:34;;;;;;;10.50;3.50;;;7.80;99.90;;;;;;4880152;29;20240;-94
2022/05/30 02:01:24;;;;;;;10.85;4.00;;;7.80;99.90;;;;;;4915080;29;20044;-95
2022/05/30 02:03:51;;;;;;;7.28;2.33;;;7.90;99.90;;;;;;4935797;29;20067;-94
2022/05/30 02:06:19;;;;;;;9.98;3.63;;;7.80;99.90;;;;;;4942956;29;20129;-94
2022/05/30 02:08:47;;;;;;;9.73;2.88;;;7.80;99.90;;;;;;4957701;29;20113;-94
2022/05/30 02:11:16;;;;;;;9.27;2.58;;;7.70;99.90;;;;;;4937875;29;20075;-94
2022/05/30 02:13:43;;;;;;;8.77;2.45;;;7.70;99.90;;;;;;4950400;29;20044;-94
2022/05/30 02:18:56;;;;;;;10.52;3.78;;;7.70;99.90;;;;;;4941770;29;20052;-94
2022/05/30 02:21:21;;;;;;;5.88;2.30;;;7.70;99.90;;;;;;4938142;29;20666;-94
2022/05/30 02:23:47;;;;;;;8.80;3.22;;;7.70;99.90;;;;;;4945224;29;20048;-94
2022/05/30 02:26:13;;;;;;;8.15;2.75;;;7.70;99.90;;;;;;4948149;29;20075;-94
2022/05/30 02:28:39;;;;;;;6.45;1.95;;;7.70;99.90;;;;;;4950151;29;20139;-94
2022/05/30 02:31:05;;;;;;;11.25;3.63;;;7.60;99.90;;;;;;4948121;29;20079;-95
2022/05/30 02:38:59;;;;;;;9.18;3.53;;;7.60;99.90;;;;;;4949905;29;20052;-94
2022/05/30 02:41:25;;;;;;;7.70;2.60;;;7.50;99.90;;;;;;4952483;29;20048;-95
2022/05/30 02:43:51;;;;;;;10.75;3.83;;;7.40;99.90;;;;;;4939832;29;20351;-94
2022/05/30 02:46:17;;;;;;;7.00;2.45;;;7.40;99.90;;;;;;4938901;29;20048;-94
2022/05/30 02:48:43;;;;;;;10.30;3.78;;;7.30;99.90;;;;;;4929931;29;20047;-95
2022/05/30 02:51:10;;;;;;;8.68;2.47;;;7.40;99.90;;;;;;4941614;29;20091;-94
2022/05/30 02:53:36;;;;;;;7.15;2.20;;;7.30;99.90;;;;;;4929802;29;20087;-94
2022/05/30 02:56:03;;;;;;;10.07;3.13;;;7.20;99.90;;;;;;4946317;29;20095;-94
2022/05/30 02:58:29;;;;;;;8.60;2.72;;;7.10;99.90;;;;;;4942731;29;20059;-93
2022/05/30 03:00:55;;;;;;;7.80;2.60;;;7.20;99.90;;;;;;4943165;29;20083;-93
2022/05/30 03:03:20;;;;;;;10.07;3.65;;;7.20;99.90;;;;;;4940910;29;20048;-94
2022/05/30 03:05:46;;;;;;;8.30;3.53;;;7.20;99.90;;;;;;4941508;29;20054;-93
2022/05/30 03:08:12;;;;;;;8.25;4.00;;;7.20;99.90;;;;;;4941761;29;20465;-95
2022/05/30 03:10:38;;;;;;;7.25;2.58;;;7.30;99.90;;;;;;4940585;29;20508;-95
2022/05/30 03:13:05;;;;;;;6.55;2.42;;;7.20;99.90;;;;;;4943624;29;20044;-94
2022/05/30 03:15:30;;;;;;;9.07;3.97;;;7.10;99.90;;;;;;4939971;29;20044;-94
2022/05/30 03:18:05;;;;;;;5.40;2.05;;;7.10;99.90;;;;;;4941708;29;20195;-95
2022/05/30 03:20:36;;;;;;;9.38;2.45;;;7.00;99.90;;;;;;4933621;29;20039;-94
2022/05/30 03:23:06;;;;;;;9.50;3.85;;;7.00;99.90;;;;;;4956226;28;20095;-93
2022/05/30 03:25:32;;;;;;;5.82;2.33;;;7.00;99.90;;;;;;4953190;29;20046;-95
2022/05/30 03:27:58;;;;;;;8.93;3.90;;;7.00;99.90;;;;;;4950632;29;20051;-93
2022/05/30 03:30:24;;;;;;;8.40;2.15;;;7.00;99.90;;;;;;4951319;29;20126;-94
2022/05/30 03:32:53;;;;;;;8.85;3.58;;;6.90;99.90;;;;;;4953041;29;20048;-94
2022/05/30 03:35:20;;;;;;;9.35;2.58;;;6.90;99.90;;;;;;4936644;29;20055;-94
2022/05/30 03:37:49;;;;;;;7.35;2.80;;;6.90;99.90;;;;;;4954826;29;20051;-94
2022/05/30 03:40:16;;;;;;;8.02;2.67;;;6.70;99.90;;;;;;4956767;29;20052;-94
2022/05/30 03:42:42;;;;;;;7.40;2.25;;;6.80;99.90;;;;;;4958408;29;20035;-94
2022/05/30 03:45:09;;;;;;;10.50;2.60;;;6.70;99.90;;;;;;4949598;29;20044;-94
2022/05/30 03:47:36;;;;;;;8.80;3.70;;;6.70;99.90;;;;;;4953611;29;20083;-94
2022/05/30 03:50:03;;;;;;;9.85;2.72;;;6.80;99.90;;;;;;4952961;29;20044;-94
2022/05/30 03:52:29;;;;;;;6.82;2.38;;;6.70;99.90;;;;;;4937677;29;20127;-94
2022/05/30 03:54:55;;;;;;;6.22;2.33;;;6.70;99.90;;;;;;4952774;29;20272;-94
2022/05/30 03:57:21;;;;;;;10.15;3.80;;;6.70;99.90;;;;;;4953715;29;20067;-94
2022/05/30 03:59:48;;;;;;;9.55;4.25;;;6.70;99.90;;;;;;4946796;29;20078;-94
2022/05/30 04:02:16;;;;;;;6.53;2.70;;;6.80;99.90;;;;;;4946203;29;20397;-94
2022/05/30 04:04:42;;;;;;;8.73;2.35;;;6.70;99.90;;;;;;4946658;29;20054;-95
2022/05/30 04:07:07;;;;;;;8.48;3.72;;;6.70;99.90;;;;;;4942920;29;20043;-94
2022/05/30 04:09:33;;;;;;;8.52;3.13;;;6.80;99.90;;;;;;4944315;29;20089;-94
2022/05/30 04:11:59;;;;;;;8.70;3.03;;;6.80;99.90;;;;;;4942497;29;20449;-95
2022/05/30 04:14:24;;;;;;;7.78;2.97;;;6.70;99.90;;;;;;4942906;29;20043;-95
2022/05/30 04:16:50;;;;;;;8.70;3.05;;;6.70;99.90;;;;;;4940630;29;20044;-95
2022/05/30 04:19:16;;;;;;;7.72;3.03;;;6.80;99.90;;;;;;4939839;29;20079;-95
2022/05/30 04:21:42;;;;;;;7.40;2.78;;;6.80;99.90;;;;;;4937791;29;20115;-94
2022/05/30 04:24:08;;;;;;;8.43;3.95;;;6.80;99.90;;;;;;4940955;29;20048;-95
2022/05/30 04:26:34;;;;;;;7.22;2.80;;;6.90;99.90;;;;;;4941495;29;20040;-93
2022/05/30 04:28:59;;;;;;;8.30;2.90;;;6.90;99.90;;;;;;4939742;29;20044;-93
2022/05/30 04:31:25;;;;;;;9.95;4.70;;;6.90;99.90;;;;;;4939013;29;20086;-94
2022/05/30 04:33:50;;;;;;;8.27;2.97;;;6.90;99.90;;;;;;4950210;29;20035;-94
2022/05/30 04:36:16;;;;;;;8.35;2.92;;;6.90;99.90;;;;;;4937441;29;20102;-94
2022/05/30 04:38:42;;;;;;;9.77;3.20;;;6.90;99.90;;;;;;4934229;29;20044;-94
2022/05/30 04:41:08;;;;;;;11.70;4.82;;;6.90;99.90;;;;;;4938156;29;20155;-94
2022/05/30 04:43:33;;;;;;;9.10;3.42;;;7.00;99.90;;;;;;4934592;29;20043;-94
2022/05/30 04:46:06;;;;;;;8.95;3.10;;;7.00;99.90;;;;;;4918024;29;20540;-94
2022/05/30 04:48:32;;;;;;;9.85;3.55;;;7.10;99.90;;;;;;4922147;29;20444;-95
2022/05/30 04:50:58;;;;;;;8.38;3.72;;;7.20;99.90;;;;;;4929893;29;20036;-94
2022/05/30 04:53:24;;;;;;;6.95;3.08;;;7.20;99.90;;;;;;4928637;29;20047;-95
2022/05/30 04:55:49;;;;;;;7.60;3.25;;;7.30;99.90;;;;;;4913440;29;20055;-94
2022/05/30 04:58:15;;;;;;;8.45;4.35;;;7.20;99.90;;;;;;4934417;29;20060;-95
2022/05/30 05:00:41;;;;;;;6.38;2.78;;;7.30;99.90;;;;;;4937243;29;20573;-94
2022/05/30 05:03:09;;;;;;;8.63;4.20;;;7.40;99.90;;;;;;4926111;29;20063;-93
2022/05/30 05:05:35;;;;;;;6.70;2.75;;;7.40;99.90;;;;;;4950796;29;20099;-95
2022/05/30 05:08:16;;;;;;;10.23;4.65;;;7.40;99.90;;;;;;4945427;29;20052;-94
2022/05/30 05:10:53;;;;;;;7.40;3.28;;;7.50;99.90;;;;;;4939967;29;20067;-94
2022/05/30 05:13:18;;;;;;;7.13;2.85;;;7.60;99.90;;;;;;4938966;29;20072;-94
2022/05/30 05:15:44;;;;;;;7.85;3.17;;;7.70;99.90;;;;;;4920460;29;20039;-93
2022/05/30 05:18:10;;;;;;;8.15;3.80;;;7.90;99.90;;;;;;4926224;29;20056;-91
2022/05/30 05:20:38;;;;;;;7.70;4.13;;;8.00;99.90;;;;;;4935887;29;20043;-94
2022/05/30 05:23:04;;;;;;;8.45;4.10;;;8.10;99.90;;;;;;4935334;29;20111;-93
2022/05/30 05:25:30;;;;;;;9.18;3.95;;;8.20;99.90;;;;;;4936345;29;20485;-93
2022/05/30 05:27:55;;;;;;;7.80;4.20;;;8.30;99.90;;;;;;4921986;29;20051;-93
2022/05/30 05:30:21;;;;;;;6.88;3.17;;;8.40;99.90;;;;;;4937451;29;20068;-93
2022/05/30 05:32:53;;;;;;;8.98;3.85;;;8.30;99.90;;;;;;4903803;29;20047;-92
2022/05/30 05:35:18;;;;;;;9.75;4.07;;;8.40;99.90;;;;;;4920156;29;20075;-91
2022/05/30 05:37:44;;;;;;;9.10;4.13;;;8.50;99.90;;;;;;4901223;29;20071;-93
2022/05/30 05:40:10;;;;;;;9.35;3.67;;;8.60;99.90;;;;;;4933582;29;20043;-91
2022/05/30 05:42:36;;;;;;;10.48;3.90;;;8.80;99.90;;;;;;4918238;29;20043;-92
2022/05/30 05:45:01;;;;;;;8.85;3.53;;;9.00;99.90;;;;;;4935810;29;20094;-92
2022/05/30 05:47:27;;;;;;;7.70;3.80;;;9.10;99.90;;;;;;4915691;29;20040;-92
2022/05/30 05:49:52;;;;;;;9.05;3.63;;;9.30;99.90;;;;;;4921370;29;20048;-92
2022/05/30 05:52:20;;;;;;;7.40;3.35;;;9.40;99.90;;;;;;4916363;29;20048;-94
2022/05/30 05:54:45;;;;;;;7.72;3.05;;;9.50;99.90;;;;;;4918593;29;20047;-92
2022/05/30 05:57:11;;;;;;;7.80;2.83;;;9.70;99.90;;;;;;4934724;29;20047;-92
2022/05/30 05:59:37;;;;;;;6.32;2.90;;;9.90;99.90;;;;;;4932198;29;20062;-88
2022/05/30 06:02:05;;;;;;;7.63;3.20;;;10.00;99.90;;;;;;4934309;29;20032;-91
2022/05/30 06:04:30;;;;;;;7.30;2.83;;;10.20;99.90;;;;;;4930337;29;20073;-92
2022/05/30 06:07:05;;;;;;;6.60;2.28;;;10.40;99.90;;;;;;4934547;29;20502;-92
2022/05/30 06:09:31;;;;;;;6.78;2.28;;;10.50;99.90;;;;;;4921754;29;20083;-90
2022/05/30 06:11:59;;;;;;;6.43;2.28;;;10.60;99.90;;;;;;4917055;29;20044;-93
2022/05/30 06:14:25;;;;;;;5.97;2.08;;;10.70;99.90;;;;;;4933146;29;20048;-92
2022/05/30 06:16:50;;;;;;;6.40;2.20;;;10.80;99.90;;;;;;4934571;29;20055;-93
2022/05/30 06:19:16;;;;;;;6.63;1.98;;;10.80;99.90;;;;;;4917005;29;20083;-94
2022/05/30 06:21:42;;;;;;;5.70;1.70;;;10.80;99.90;;;;;;4924120;29;20020;-95
2022/05/30 06:24:09;;;;;;;5.32;1.83;;;10.90;99.90;;;;;;4919224;29;20044;-93
2022/05/30 06:26:35;;;;;;;4.35;1.80;;;10.90;99.90;;;;;;4920706;29;20075;-94
2022/05/30 06:29:01;;;;;;;5.63;1.80;;;10.90;99.90;;;;;;4941289;29;20047;-94
2022/05/30 06:31:30;;;;;;;4.93;1.80;;;11.00;99.90;;;;;;4924609;29;20132;-90
2022/05/30 06:34:11;;;;;;;6.03;1.90;;;11.00;99.90;;;;;;4917730;29;20048;-93
2022/05/30 06:36:40;;;;;;;5.50;2.05;;;11.00;99.90;;;;;;4931313;29;20071;-93
2022/05/30 06:39:06;;;;;;;5.82;1.80;;;11.00;99.90;;;;;;4927331;29;20134;-93
2022/05/30 06:41:32;;;;;;;4.35;1.70;;;11.00;99.90;;;;;;4936583;29;20071;-93
2022/05/30 06:44:04;;;;;;;5.68;1.63;;;10.90;99.90;;;;;;4919984;29;20054;-93
2022/05/30 06:46:31;;;;;;;5.97;1.50;;;11.00;99.90;;;;;;4937891;29;20047;-94
2022/05/30 06:48:57;;;;;;;5.90;1.80;;;11.10;99.90;;;;;;4936374;29;20136;-93
2022/05/30 06:51:25;;;;;;;5.32;1.70;;;11.10;99.90;;;;;;4939710;29;20060;-93
2022/05/30 06:53:52;;;;;;;6.03;1.60;;;11.20;99.90;;;;;;4941129;29;20387;-94
2022/05/30 06:56:28;;;;;;;3.92;1.55;;;11.30;99.90;;;;;;4919756;29;20036;-93
2022/05/30 06:58:54;;;;;;;4.78;1.60;;;11.40;99.90;;;;;;4936791;29;20071;-95
2022/05/30 07:01:23;;;;;;;5.00;1.75;;;11.60;99.90;;;;;;4953353;29;20066;-93
2022/05/30 07:03:48;;;;;;;5.32;1.50;;;11.80;99.90;;;;;;4939463;29;20051;-92
2022/05/30 07:06:17;;;;;;;4.65;1.20;;;12.00;99.90;;;;;;4951385;29;20111;-94
2022/05/30 07:08:46;;;;;;;3.90;1.17;;;12.20;99.90;;;;;;4935729;29;20036;-92
2022/05/30 07:11:17;;;;;;;4.45;1.65;;;12.30;99.90;;;;;;4932956;29;20036;-95
2022/05/30 07:13:43;;;;;;;3.47;1.08;;;12.30;99.90;;;;;;4930741;29;20172;-92
2022/05/30 07:16:09;;;;;;;3.75;1.08;;;12.20;99.90;;;;;;4918502;29;20043;-93
2022/05/30 07:18:36;;;;;;;3.90;1.05;;;12.20;99.90;;;;;;4920759;29;20048;-92
2022/05/30 07:21:04;;;;;;;4.63;1.10;;;12.20;99.90;;;;;;4944684;29;20032;-93
2022/05/30 07:23:32;;;;;;;4.68;1.15;;;12.20;99.90;;;;;;4941754;29;20067;-95
2022/05/30 07:25:59;;;;;;;2.03;0.90;;;12.20;99.90;;;;;;4936882;29;20083;-93
2022/05/30 07:28:29;;;;;;;3.20;1.15;;;12.20;99.90;;;;;;4937257;29;20101;-94
2022/05/30 07:30:56;;;;;;;3.38;1.10;;;12.30;99.90;;;;;;4941138;29;20045;-94
2022/05/30 07:33:21;;;;;;;3.72;1.10;;;12.30;99.90;;;;;;4922749;29;20413;-94
2022/05/30 07:35:53;;;;;;;3.20;1.13;;;12.20;99.90;;;;;;4922547;29;20078;-95
2022/05/30 07:38:18;;;;;;;6.10;1.45;;;12.30;99.90;;;;;;4935436;29;20117;-94
2022/05/30 07:40:44;;;;;;;4.07;1.52;;;12.40;99.90;;;;;;4938696;29;20111;-94
2022/05/30 07:43:10;;;;;;;2.50;1.10;;;12.40;99.90;;;;;;4926786;29;20055;-93
2022/05/30 07:45:35;;;;;;;4.38;1.33;;;12.30;99.90;;;;;;4920405;29;20043;-91
2022/05/30 07:48:02;;;;;;;4.00;1.15;;;12.20;99.90;;;;;;4938384;29;20058;-93
2022/05/30 07:50:28;;;;;;;4.53;1.40;;;12.20;99.90;;;;;;4930435;29;20131;-94
2022/05/30 07:52:54;;;;;;;2.50;1.00;;;12.40;99.90;;;;;;4925789;29;20083;-93
2022/05/30 07:55:21;;;;;;;5.78;1.30;;;12.40;99.90;;;;;;4938331;29;20040;-93
2022/05/30 07:57:50;;;;;;;2.15;1.08;;;12.50;99.90;;;;;;4942835;29;20369;-93
2022/05/30 08:00:18;;;;;;;3.53;1.10;;;12.50;99.90;;;;;;4917998;29;20506;-93
2022/05/30 08:02:44;;;;;;;2.03;1.00;;;12.70;99.90;;;;;;4931465;29;20103;-94
2022/05/30 08:05:12;;;;;;;4.38;1.48;;;12.90;99.90;;;;;;4918439;29;20040;-93
2022/05/30 08:07:39;;;;;;;2.47;0.80;;;13.10;99.90;;;;;;4932822;29;20158;-94
2022/05/30 08:10:06;;;;;;;2.83;0.90;;;13.10;99.90;;;;;;4939755;29;20043;-93
2022/05/30 08:12:32;;;;;;;2.65;0.90;;;13.10;99.90;;;;;;4936390;29;20051;-95
2022/05/30 08:14:59;;;;;;;5.10;0.90;;;13.00;99.90;;;;;;4921512;29;20063;-95
2022/05/30 08:17:25;;;;;;;1.23;0.70;;;12.90;99.90;;;;;;4949800;29;20110;-94
2022/05/30 08:19:53;;;;;;;1.98;0.75;;;13.00;99.90;;;;;;4912499;29;20409;-94
2022/05/30 08:22:22;;;;;;;;;;;13.10;99.90;;;;;;4933973;29;20071;-94
2022/05/30 08:24:48;;;;;;;3.70;0.93;;;13.20;99.90;;;;;;4933382;29;19930;-95
2022/05/30 08:27:15;;;;;;;3.33;0.90;;;13.10;99.90;;;;;;4925474;29;20071;-94
2022/05/30 08:29:42;;;;;;;1.90;0.68;;;13.10;99.90;;;;;;4938823;29;20056;-94
2022/05/30 08:32:08;;;;;;;1.60;0.75;;;13.10;99.90;;;;;;4918725;29;20079;-93
2022/05/30 08:34:39;;;;;;;2.25;0.80;;;13.10;99.90;;;;;;4935287;29;20420;-94
2022/05/30 08:37:06;;;;;;;2.45;0.80;;;13.00;99.90;;;;;;4922910;29;20057;-95
2022/05/30 08:42:31;;;;;;;2.45;0.80;;;13.00;99.90;;;;;;4921488;29;20044;-93
2022/05/30 08:44:57;;;;;;;2.15;0.82;;;13.00;99.90;;;;;;4915337;29;20053;-95
2022/05/30 08:48:04;;;;;;;2.42;0.82;;;12.90;99.90;;;;;;4934023;29;20191;-89
2022/05/30 08:51:04;;;;;;;3.40;0.90;;;12.90;99.90;;;;;;4908657;29;20051;-94
2022/05/30 08:53:49;;;;;;;2.65;1.05;;;12.70;99.90;;;;;;4935014;29;20051;-94
2022/05/30 08:56:34;;;;;;;2.30;0.70;;;12.60;99.90;;;;;;4936047;29;20131;-93
2022/05/30 08:59:30;;;;;;;2.42;0.88;;;12.40;99.90;;;;;;4936447;29;20064;-95
2022/05/30 09:02:09;;;;;;;3.42;1.20;;;12.30;99.90;;;;;;4941869;29;20208;-94
2022/05/30 09:04:49;;;;;;;2.25;0.90;;;12.20;99.90;;;;;;4919418;29;20135;-90
2022/05/30 09:07:18;;;;;;;2.22;0.70;;;12.10;99.90;;;;;;4931240;29;20043;-93
2022/05/30 09:10:09;;;;;;;1.20;0.63;;;12.10;99.90;;;;;;4915679;29;20134;-92
2022/05/30 09:12:44;;;;;;;2.80;0.70;;;11.90;99.90;;;;;;4930631;29;20055;-94
2022/05/30 09:15:24;;;;;;;2.35;0.70;;;11.90;99.90;;;;;;4934142;29;20288;-91
2022/05/30 09:18:35;;;;;;;1.27;0.60;;;11.90;99.90;;;;;;4909264;29;20044;-95
2022/05/30 09:21:01;;;;;;;1.67;0.60;;;12.00;99.90;;;;;;4895069;29;20052;-96
2022/05/30 09:23:29;;;;;;;2.45;0.70;;;12.10;99.90;;;;;;4909490;29;20044;-95
2022/05/30 09:26:00;;;;;;;2.42;0.70;;;12.20;99.90;;;;;;4888254;29;20072;-94
2022/05/30 09:28:30;;;;;;;1.50;0.52;;;12.30;99.90;;;;;;4880304;29;20128;-91
2022/05/30 09:31:21;;;;;;;1.98;0.70;;;12.40;99.90;;;;;;4877563;29;20048;-94
2022/05/30 09:34:24;;;;;;;1.73;0.60;;;12.40;99.90;;;;;;4896183;29;20044;-94
2022/05/30 09:36:51;;;;;;;2.17;0.57;;;12.40;99.90;;;;;;4862860;29;20196;-92
2022/05/30 09:39:17;;;;;;;1.58;0.47;;;12.50;99.90;;;;;;4881290;29;20060;-93
2022/05/30 09:41:43;;;;;;;1.02;0.50;;;12.50;99.90;;;;;;4863566;29;20053;-92
2022/05/30 09:44:17;;;;;;;1.60;0.60;;;12.50;99.90;;;;;;4879315;29;20453;-94
2022/05/30 09:46:56;;;;;;;1.05;0.50;;;12.60;99.90;;;;;;4877526;29;20049;-94
2022/05/30 09:49:53;;;;;;;2.03;0.75;;;12.60;99.90;;;;;;4866950;29;20048;-93
2022/05/30 09:52:30;;;;;;;2.85;0.90;;;12.70;99.90;;;;;;4910935;29;20059;-94
2022/05/30 09:54:56;;;;;;;2.22;0.90;;;12.80;99.90;;;;;;4919270;29;20089;-93
2022/05/30 09:57:23;;;;;;;3.78;1.00;;;13.00;99.90;;;;;;4919682;29;20067;-93
2022/05/30 09:59:52;;;;;;;3.45;1.10;;;13.10;99.90;;;;;;4935015;29;20101;-92
2022/05/30 10:02:23;;;;;;;3.58;1.20;;;13.30;99.90;;;;;;4918352;29;20048;-93
2022/05/30 10:05:07;;;;;;;1.88;1.02;;;13.60;99.90;;;;;;4934507;29;20043;-93
2022/05/30 10:07:35;;;;;;;2.30;0.50;;;13.90;99.90;;;;;;4917387;29;20057;-92
2022/05/30 10:10:19;;;;;;;0.75;0.40;;;14.00;99.90;;;;;;4935040;29;20051;-93
2022/05/30 10:13:03;;;;;;;0.32;0.30;;;14.20;99.90;;;;;;4935716;29;20404;-91
2022/05/30 10:15:31;;;;;;;1.33;0.50;;;14.30;99.90;;;;;;4934739;29;20078;-90
2022/05/30 10:18:18;;;;;;;2.33;0.50;;;14.50;99.90;;;;;;4934656;29;20147;-91
2022/05/30 10:21:03;;;;;;;1.42;0.30;;;14.40;99.90;;;;;;4922017;29;20078;-92
2022/05/30 10:29:30;;;;;;;3.65;0.60;;;14.60;99.90;;;;;;4932948;29;20059;-92
2022/05/30 10:32:13;;;;;;;1.35;0.50;;;14.60;99.90;;;;;;4931113;29;20427;-92
2022/05/30 10:34:42;;;;;;;1.25;0.60;;;14.70;99.90;;;;;;4932726;29;20128;-92
2022/05/30 10:37:22;;;;;;;2.67;0.57;;;14.80;99.90;;;;;;4918470;29;20039;-94
2022/05/30 10:40:15;;;;;;;2.10;0.70;;;14.90;99.90;;;;;;4933859;29;20035;-91
2022/05/30 10:42:59;;;;;;;1.67;0.60;;;14.90;99.90;;;;;;4932569;29;20039;-93
2022/05/30 10:45:37;;;;;;;1.05;0.55;;;14.90;99.90;;;;;;4905740;29;20059;-93
2022/05/30 10:48:06;;;;;;;3.60;0.65;;;14.90;99.90;;;;;;4922281;29;20035;-93
2022/05/30 10:50:51;;;;;;;2.75;0.80;;;14.90;99.90;;;;;;4919522;29;20046;-92
2022/05/30 10:53:55;;;;;;;3.10;0.75;;;14.80;99.90;;;;;;4934257;29;20079;-94
2022/05/30 10:56:28;;;;;;;1.95;0.70;;;14.70;99.90;;;;;;4938029;29;20048;-95
2022/05/30 10:58:59;;;;;;;2.75;0.80;;;14.60;99.90;;;;;;4921026;29;20051;-93
2022/05/30 11:01:37;;;;;;;1.73;0.80;;;14.50;99.90;;;;;;4923963;29;20087;-93
2022/05/30 11:04:14;;;;;;;1.90;0.73;;;14.40;99.90;;;;;;4923479;29;20523;-92
2022/05/30 11:06:44;;;;;;;1.20;0.50;;;14.20;99.90;;;;;;4913358;29;20043;-91
2022/05/30 11:09:19;;;;;;;1.70;0.50;;;14.10;99.90;;;;;;4929008;29;20039;-93
2022/05/30 11:11:56;;;;;;;1.27;0.52;;;14.10;99.90;;;;;;4925064;29;20102;-91
2022/05/30 11:14:55;;;;;;;1.58;0.63;;;14.10;99.90;;;;;;4932268;29;20059;-90
2022/05/30 11:17:49;;;;;;;2.35;0.60;;;14.00;99.90;;;;;;4923004;29;20048;-91
2022/05/30 11:20:23;;;;;;;1.83;0.40;;;14.10;99.90;;;;;;4932061;29;20051;-92
2022/05/30 11:22:52;;;;;;;1.55;0.50;;;14.10;99.90;;;;;;4932394;29;20121;-91
2022/05/30 11:25:37;;;;;;;1.60;0.50;;;14.20;99.90;;;;;;4930344;29;20171;-90
2022/05/30 11:28:24;;;;;;;0.68;0.50;;;14.20;99.90;;;;;;4905838;29;20095;-89
2022/05/30 11:31:16;;;;;;;2.05;0.70;;;14.30;99.90;;;;;;4934030;29;20138;-91
2022/05/30 11:33:46;;;;;;;12.38;2.83;;;14.40;99.90;;;;;;4933404;29;20075;-91
2022/05/30 11:36:40;;;;;;;2.13;0.70;;;14.50;99.90;;;;;;4932765;29;20401;-91
2022/05/30 11:39:18;;;;;;;6.72;2.08;;;14.60;99.90;;;;;;4930446;29;20436;-93
2022/05/30 11:42:06;;;;;;;2.35;0.88;;;14.60;99.90;;;;;;4920540;29;20060;-93
2022/05/30 11:44:45;;;;;;;5.45;1.05;;;14.60;99.90;;;;;;4921026;29;20402;-91
2022/05/30 11:47:26;;;;;;;3.05;1.05;;;14.40;99.90;;;;;;4940969;29;20039;-92
2022/05/30 11:50:16;;;;;;;3.25;1.10;;;14.10;99.90;;;;;;4919629;29;20220;-89
2022/05/30 11:53:19;;;;;;;2.73;1.00;;;13.80;99.90;;;;;;4941587;29;20055;-95
2022/05/30 11:56:10;;;;;;;4.90;1.00;;;13.50;99.90;;;;;;4939718;29;20186;-94
2022/05/30 11:58:51;;;;;;;3.90;1.23;;;13.20;99.90;;;;;;4939897;29;20055;-92
2022/05/30 12:01:18;;;;;;;3.83;1.08;;;13.10;99.90;;;;;;4921531;29;20052;-93
2022/05/30 12:04:11;;;;;;;3.53;1.38;;;13.00;99.90;;;;;;4916348;29;20089;-91
2022/05/30 12:07:09;;;;;;;4.68;1.08;;;12.90;99.90;;;;;;4920359;29;20090;-93
2022/05/30 12:09:48;;;;;;;3.20;1.08;;;12.80;99.90;;;;;;4929986;29;20042;-93
2022/05/30 12:12:21;;;;;;;4.75;1.13;;;12.70;99.90;;;;;;4937592;29;20031;-90
2022/05/30 12:15:25;;;;;;;4.13;0.98;;;12.60;99.90;;;;;;4939355;29;20047;-96
2022/05/30 12:24:15;;;;;;;5.60;1.30;;;12.30;99.90;;;;;;4924185;29;20064;-91
2022/05/30 12:26:56;;;;;;;4.28;1.48;;;12.30;99.90;;;;;;4941254;29;20024;-93
2022/05/30 12:29:42;;;;;;;3.35;1.20;;;12.30;99.90;;;;;;4931611;29;20059;-93
2022/05/30 12:32:23;;;;;;;3.80;1.00;;;12.30;99.90;;;;;;4920907;29;20054;-88
2022/05/30 12:35:23;;;;;;;3.30;0.90;;;12.30;99.90;;;;;;4945424;29;20058;-93
2022/05/30 12:38:07;;;;;;;4.28;1.02;;;12.30;99.90;;;;;;4934659;29;20111;-95
2022/05/30 12:40:52;;;;;;;4.30;0.98;;;12.30;99.90;;;;;;4921061;29;20027;-95
2022/05/30 12:43:23;;;;;;;2.33;1.00;;;12.50;99.90;;;;;;4946501;29;20081;-93
2022/05/30 12:45:55;;;;;;;2.70;1.02;;;12.50;99.90;;;;;;4939730;29;20083;-93
2022/05/30 12:48:26;;;;;;;3.40;0.90;;;12.60;99.90;;;;;;4928940;29;20039;-93
2022/05/30 12:50:54;;;;;;;1.77;0.80;;;12.70;99.90;;;;;;5128908;23;20322;-94
2022/05/30 12:53:23;;;;;;;3.17;0.90;;;12.70;99.90;;;;;;4983167;28;20051;-93
2022/05/30 12:55:53;;;;;;;0.90;0.70;;;12.80;99.90;;;;;;4962824;28;20039;-93
2022/05/30 12:58:25;;;;;;;2.53;0.80;;;12.90;99.90;;;;;;4962638;28;20359;-94
2022/05/30 13:01:23;;;;;;;1.95;0.80;;;13.00;99.90;;;;;;4979349;28;20090;-93
2022/05/30 13:04:35;;;;;;;1.20;0.73;;;13.20;99.90;;;;;;4971675;28;20046;-92
2022/05/30 13:07:04;;;;;;;;;;;13.40;99.90;;;;;;4941568;28;20051;-92
2022/05/30 13:10:04;;;;;;;2.75;0.95;;;13.50;99.90;;;;;;4979864;28;19968;-93
2022/05/30 13:12:53;;;;;;;2.55;0.85;;;13.70;99.90;;;;;;4978062;28;20086;-93
2022/05/30 13:15:36;;;;;;;2.03;0.82;;;14.00;99.90;;;;;;4964536;28;20043;-93
2022/05/30 13:18:27;;;;;;;4.68;1.15;;;14.20;99.90;;;;;;4976672;28;20077;-93
2022/05/30 13:21:01;;;;;;;2.83;0.82;;;14.50;99.90;;;;;;4976210;28;20479;-91
2022/05/30 13:23:34;;;;;;;3.45;1.00;;;14.60;99.90;;;;;;4962994;28;20050;-94
2022/05/30 13:26:00;;;;;;;4.32;1.20;;;14.80;99.90;;;;;;4964741;29;20070;-94
2022/05/30 13:28:28;;;;;;;3.83;1.10;;;14.90;99.90;;;;;;4972377;28;20074;-92
2022/05/30 13:30:55;;;;;;;2.55;1.15;;;15.00;99.90;;;;;;4967114;28;20444;-91
2022/05/30 13:33:26;;;;;;;3.08;1.08;;;15.10;99.90;;;;;;4962719;29;20084;-90
2022/05/30 13:36:00;;;;;;;3.38;1.05;;;15.20;99.90;;;;;;4970081;29;20058;-91
2022/05/30 13:38:39;;;;;;;3.10;1.02;;;15.40;99.90;;;;;;4970597;28;20054;-94
2022/05/30 13:41:15;;;;;;;2.05;0.80;;;15.40;99.90;;;;;;4984765;28;20083;-93
2022/05/30 13:43:41;;;;;;;2.15;0.68;;;15.50;99.90;;;;;;4947736;29;20624;-93
2022/05/30 13:46:08;;;;;;;3.22;0.98;;;15.60;99.90;;;;;;4959690;29;20073;-94
2022/05/30 13:48:34;;;;;;;1.55;0.60;;;15.60;99.90;;;;;;4966076;29;20065;-92
2022/05/30 13:51:06;;;;;;;3.28;0.80;;;15.50;99.90;;;;;;4959552;29;20091;-91